createdAt,value
2023-04-23T00:02:03.083Z,16.50
2023-04-23T00:04:34.100Z,18.57
2023-04-23T00:07:02.085Z,17.93
2023-04-23T00:09:32.475Z,16.23
2023-04-23T00:12:02.125Z,16.43
2023-04-23T00:14:31.048Z,19.37
2023-04-23T00:16:59.686Z,18.10
2023-04-23T00:19:27.216Z,18.13
2023-04-23T00:21:54.763Z,17.37
2023-04-23T00:24:22.545Z,16.87
2023-04-23T00:26:53.539Z,19.83
2023-04-23T00:29:21.133Z,18.13
2023-04-23T00:31:49.305Z,20.63
2023-04-23T00:34:16.974Z,16.30
2023-04-23T00:36:45.175Z,17.93
2023-04-23T00:39:12.904Z,17.80
2023-04-23T00:41:41.711Z,19.20
2023-04-23T00:44:09.834Z,23.37
2023-04-23T00:46:38.543Z,21.10
2023-04-23T00:49:06.059Z,19.20
2023-04-23T00:51:33.785Z,17.77
2023-04-23T00:54:02.217Z,21.90
2023-04-23T00:56:30.280Z,18.13
2023-04-23T00:58:58.241Z,19.40
2023-04-23T01:01:26.298Z,24.40
2023-04-23T01:03:53.927Z,20.77
2023-04-23T01:06:21.617Z,19.80
2023-04-23T01:08:49.286Z,19.63
2023-04-23T01:11:16.932Z,21.30
2023-04-23T01:13:44.608Z,18.57
2023-04-23T01:16:12.621Z,19.97
2023-04-23T01:18:41.267Z,18.40
2023-04-23T01:21:10.065Z,20.40
2023-04-23T01:23:38.065Z,17.70
2023-04-23T01:26:06.076Z,17.27
2023-04-23T01:28:33.614Z,17.33
2023-04-23T01:31:00.888Z,19.07
2023-04-23T01:33:28.665Z,17.70
2023-04-23T01:35:55.574Z,18.47
2023-04-23T01:38:23.666Z,20.20
2023-04-23T01:40:51.908Z,20.13
2023-04-23T01:43:19.954Z,19.60
2023-04-23T01:45:47.994Z,23.23
2023-04-23T01:48:15.257Z,17.80
2023-04-23T01:50:43.277Z,17.07
2023-04-23T01:53:10.543Z,18.50
2023-04-23T01:55:39.517Z,18.33
2023-04-23T01:58:07.249Z,22.37
2023-04-23T02:00:35.176Z,16.47
2023-04-23T02:03:03.308Z,18.60
2023-04-23T02:05:31.596Z,20.47
2023-04-23T02:07:59.405Z,19.57
2023-04-23T02:10:27.214Z,21.17
2023-04-23T02:12:55.113Z,17.47
2023-04-23T02:15:23.204Z,22.17
2023-04-23T02:17:52.354Z,20.23
2023-04-23T02:20:19.890Z,20.50
2023-04-23T02:22:48.221Z,24.20
2023-04-23T02:25:17.029Z,26.47
2023-04-23T02:27:45.552Z,26.07
2023-04-23T02:30:14.334Z,22.47
2023-04-23T02:32:43.243Z,23.13
2023-04-23T02:35:11.043Z,24.73
2023-04-23T02:37:38.435Z,22.97
2023-04-23T02:40:09.198Z,22.87
2023-04-23T02:42:37.535Z,21.83
2023-04-23T02:45:07.383Z,23.87
2023-04-23T02:47:34.515Z,23.07
2023-04-23T02:50:05.975Z,27.47
2023-04-23T02:52:34.381Z,24.33
2023-04-23T02:55:02.622Z,26.20
2023-04-23T02:57:30.559Z,24.07
2023-04-23T02:59:58.724Z,26.30
2023-04-23T03:02:26.549Z,24.00
2023-04-23T03:04:54.634Z,28.87
2023-04-23T03:07:22.634Z,30.63
2023-04-23T03:09:50.290Z,21.00
2023-04-23T03:12:18.322Z,26.00
2023-04-23T03:14:45.902Z,29.57
2023-04-23T03:17:14.055Z,23.60
2023-04-23T03:19:41.723Z,23.67
2023-04-23T03:22:10.032Z,26.00
2023-04-23T03:24:38.000Z,23.73
2023-04-23T03:27:06.962Z,24.57
2023-04-23T03:29:34.564Z,24.37
2023-04-23T03:32:02.740Z,23.37
2023-04-23T03:34:30.597Z,23.57
2023-04-23T03:36:58.741Z,25.03
2023-04-23T03:39:26.860Z,24.97
2023-04-23T03:41:54.484Z,22.23
2023-04-23T03:44:22.397Z,25.20
2023-04-23T03:46:50.031Z,22.70
2023-04-23T03:49:17.725Z,24.57
2023-04-23T03:51:45.560Z,24.47
2023-04-23T03:54:19.719Z,23.90
2023-04-23T03:56:47.911Z,21.77
2023-04-23T03:59:16.043Z,25.07
2023-04-23T04:01:44.340Z,24.27
2023-04-23T04:04:12.219Z,26.07
2023-04-23T04:06:40.488Z,24.70
2023-04-23T04:09:09.045Z,25.40
2023-04-23T04:11:38.057Z,24.73
2023-04-23T04:14:06.137Z,23.57
2023-04-23T04:16:34.544Z,22.67
2023-04-23T04:19:02.880Z,25.20
2023-04-23T04:21:30.866Z,23.27
2023-04-23T04:23:58.940Z,23.47
2023-04-23T04:26:27.019Z,23.90
2023-04-23T04:28:55.063Z,24.03
2023-04-23T04:31:22.952Z,24.53
2023-04-23T04:33:50.936Z,25.77
2023-04-23T04:36:19.072Z,25.03
2023-04-23T04:38:46.683Z,26.53
2023-04-23T04:41:14.981Z,25.63
2023-04-23T04:43:43.738Z,26.13
2023-04-23T04:46:11.974Z,23.17
2023-04-23T04:48:40.439Z,22.70
2023-04-23T04:51:07.931Z,26.07
2023-04-23T04:53:36.147Z,24.20
2023-04-23T04:56:03.822Z,21.67
2023-04-23T04:58:31.790Z,22.50
2023-04-23T05:00:59.700Z,21.40
2023-04-23T05:03:27.572Z,22.87
2023-04-23T05:05:56.532Z,21.07
2023-04-23T05:08:24.260Z,23.17
2023-04-23T05:10:51.898Z,23.27
2023-04-23T05:13:19.899Z,22.30
2023-04-23T05:15:48.222Z,20.23
2023-04-23T05:18:16.235Z,21.47
2023-04-23T05:20:43.292Z,26.27
2023-04-23T05:23:11.421Z,24.87
2023-04-23T05:25:40.611Z,23.60
2023-04-23T05:28:08.939Z,26.43
2023-04-23T05:30:36.594Z,25.80
2023-04-23T05:33:04.214Z,22.33
2023-04-23T05:35:32.067Z,21.83
2023-04-23T05:38:00.022Z,24.97
2023-04-23T05:40:28.037Z,21.23
2023-04-23T05:42:56.039Z,20.57
2023-04-23T05:45:24.308Z,22.13
2023-04-23T05:47:51.980Z,22.27
2023-04-23T05:50:20.697Z,22.67
2023-04-23T05:52:50.270Z,24.60
2023-04-23T05:55:18.494Z,22.90
2023-04-23T05:57:46.531Z,21.37
2023-04-23T06:00:16.014Z,22.63
2023-04-23T06:02:44.573Z,22.23
2023-04-23T06:05:12.780Z,26.07
2023-04-23T06:07:41.529Z,23.10
2023-04-23T06:10:10.522Z,27.57
2023-04-23T06:12:39.576Z,29.00
2023-04-23T06:15:10.107Z,27.43
2023-04-23T06:17:37.453Z,26.63
2023-04-23T06:20:11.981Z,25.20
2023-04-23T06:22:39.765Z,24.40
2023-04-23T06:25:10.248Z,27.47
2023-04-23T06:27:43.879Z,29.97
2023-04-23T06:30:13.786Z,27.00
2023-04-23T06:32:41.459Z,26.83
2023-04-23T06:35:11.054Z,27.37
2023-04-23T06:37:39.120Z,25.63
2023-04-23T06:40:08.533Z,27.97
2023-04-23T06:42:37.079Z,26.50
2023-04-23T06:45:10.324Z,26.67
2023-04-23T06:47:38.623Z,25.13
2023-04-23T06:50:10.196Z,27.77
2023-04-23T06:52:37.541Z,30.07
2023-04-23T06:55:06.804Z,27.70
2023-04-23T06:57:35.148Z,26.47
2023-04-23T07:00:02.948Z,29.90
2023-04-23T07:02:34.249Z,22.63
2023-04-23T07:05:02.477Z,21.67
2023-04-23T07:07:30.550Z,22.93
2023-04-23T07:09:58.174Z,23.93
2023-04-23T07:12:25.371Z,21.90
2023-04-23T07:14:54.420Z,21.80
2023-04-23T07:17:22.090Z,20.33
2023-04-23T07:19:50.274Z,23.60
2023-04-23T07:22:18.243Z,23.47
2023-04-23T07:24:45.923Z,23.77
2023-04-23T07:27:14.450Z,22.17
2023-04-23T07:29:43.402Z,21.47
2023-04-23T07:32:10.968Z,23.93
2023-04-23T07:34:44.263Z,25.27
2023-04-23T07:37:12.704Z,24.50
2023-04-23T07:39:44.837Z,22.57
2023-04-23T07:42:13.841Z,19.73
2023-04-23T07:44:41.937Z,18.77
2023-04-23T07:47:09.493Z,19.63
2023-04-23T07:49:37.494Z,15.80
2023-04-23T07:52:05.948Z,16.00
2023-04-23T07:54:33.740Z,19.97
2023-04-23T07:57:01.414Z,18.33
2023-04-23T07:59:29.423Z,14.83
2023-04-23T08:01:57.395Z,15.77
2023-04-23T08:04:27.458Z,16.13
2023-04-23T08:06:55.354Z,17.07
2023-04-23T08:09:23.619Z,17.90
2023-04-23T08:11:51.271Z,16.93
2023-04-23T08:14:18.917Z,13.67
2023-04-23T08:16:47.084Z,14.43
2023-04-23T08:19:15.272Z,15.97
2023-04-23T08:21:43.266Z,21.70
2023-04-23T08:24:10.874Z,18.07
2023-04-23T08:26:38.921Z,16.43
2023-04-23T08:29:06.148Z,19.23
2023-04-23T08:31:34.234Z,18.83
2023-04-23T08:34:02.488Z,16.80
2023-04-23T08:36:30.066Z,18.63
2023-04-23T08:38:57.922Z,16.83
2023-04-23T08:41:26.625Z,17.87
2023-04-23T08:44:01.626Z,19.07
2023-04-23T08:46:29.351Z,16.57
2023-04-23T08:48:57.218Z,22.50
2023-04-23T08:51:25.264Z,18.73
2023-04-23T08:53:55.232Z,24.13
2023-04-23T08:56:22.473Z,24.27
2023-04-23T08:58:51.215Z,20.70
2023-04-23T09:01:19.446Z,17.63
2023-04-23T09:03:47.606Z,16.07
2023-04-23T09:06:15.705Z,17.53
2023-04-23T09:08:43.905Z,32.43
2023-04-23T09:11:12.002Z,26.60
2023-04-23T09:13:41.557Z,16.93
2023-04-23T09:16:10.282Z,29.27
2023-04-23T09:18:38.733Z,17.83
2023-04-23T09:21:06.541Z,14.77
2023-04-23T09:23:34.657Z,17.03
2023-04-23T09:26:08.330Z,17.00
2023-04-23T09:28:36.755Z,15.20
2023-04-23T09:31:06.263Z,20.50
2023-04-23T09:33:36.456Z,18.53
2023-04-23T09:36:12.285Z,20.93
2023-04-23T09:38:42.220Z,18.35
2023-04-23T09:41:26.699Z,16.33
2023-04-23T09:43:56.662Z,16.17
2023-04-23T09:46:48.945Z,16.47
2023-04-23T09:49:16.465Z,18.67
2023-04-23T09:51:44.985Z,20.33
2023-04-23T09:54:21.955Z,16.80
2023-04-23T09:56:57.697Z,16.13
2023-04-23T09:59:45.446Z,15.45
2023-04-23T10:02:14.526Z,12.87
2023-04-23T10:04:42.518Z,13.63
2023-04-23T10:07:19.596Z,11.30
2023-04-23T10:09:48.254Z,13.30
2023-04-23T10:14:46.826Z,13.97
2023-04-23T10:17:14.791Z,15.50
2023-04-23T10:19:43.539Z,11.13
2023-04-23T10:22:19.350Z,11.30
2023-04-23T10:24:49.429Z,14.02
2023-04-23T10:27:30.659Z,9.30
2023-04-23T10:30:06.521Z,9.47
2023-04-23T10:32:37.608Z,10.90
2023-04-23T10:35:07.537Z,7.53
2023-04-23T10:37:35.588Z,8.87
2023-04-23T10:40:15.328Z,11.50
2023-04-23T10:42:43.470Z,12.60
2023-04-23T10:47:49.194Z,8.20
2023-04-23T10:50:30.800Z,8.82
2023-04-23T10:52:59.027Z,7.68
2023-04-23T10:55:28.062Z,6.15
2023-04-23T10:58:01.534Z,9.57
2023-04-23T11:00:51.038Z,7.60
2023-04-23T11:03:32.584Z,6.72
2023-04-23T11:06:04.129Z,6.20
2023-04-23T11:08:34.667Z,6.95
2023-04-23T11:11:02.547Z,7.10
2023-04-23T11:13:30.057Z,5.30
2023-04-23T11:16:21.767Z,6.72
2023-04-23T11:19:03.992Z,6.70
2023-04-23T11:21:56.582Z,6.97
2023-04-23T11:24:25.285Z,8.80
2023-04-23T11:26:55.017Z,6.88
2023-04-23T11:29:23.800Z,6.25
2023-04-23T11:32:01.839Z,5.97
2023-04-23T11:34:30.576Z,12.65
2023-04-23T11:36:59.132Z,7.13
2023-04-23T11:39:27.570Z,7.32
2023-04-23T11:41:55.059Z,7.10
2023-04-23T11:44:22.782Z,7.47
2023-04-23T11:46:50.255Z,7.03
2023-04-23T11:49:18.126Z,8.38
2023-04-23T11:51:45.893Z,8.23
2023-04-23T11:54:13.883Z,9.13
2023-04-23T11:56:42.053Z,12.00
2023-04-23T11:59:09.790Z,11.15
2023-04-23T12:01:47.023Z,10.18
2023-04-23T12:04:41.722Z,9.32
2023-04-23T12:07:25.791Z,10.30
2023-04-23T12:09:53.712Z,7.82
2023-04-23T12:12:21.764Z,9.55
2023-04-23T12:14:49.905Z,8.50
2023-04-23T12:17:17.473Z,13.43
2023-04-23T12:19:45.081Z,8.48
2023-04-23T12:22:12.927Z,8.88
2023-04-23T12:24:51.668Z,10.23
2023-04-23T12:27:20.545Z,9.77
2023-04-23T12:29:48.620Z,9.00
2023-04-23T12:32:15.960Z,6.15
2023-04-23T12:34:53.588Z,8.60
2023-04-23T12:37:26.642Z,8.60
2023-04-23T12:39:55.581Z,11.60
2023-04-23T12:42:22.457Z,8.10
2023-04-23T12:44:51.805Z,7.38
2023-04-23T12:47:25.235Z,7.25
2023-04-23T12:49:56.830Z,6.28
2023-04-23T12:52:24.136Z,7.55
2023-04-23T12:54:56.981Z,6.40
2023-04-23T12:57:25.369Z,7.45
2023-04-23T12:59:54.984Z,8.30
2023-04-23T13:02:23.371Z,8.02
2023-04-23T13:04:51.273Z,6.03
2023-04-23T13:07:18.866Z,8.02
2023-04-23T13:09:55.363Z,6.40
2023-04-23T13:12:25.479Z,5.50
2023-04-23T13:14:53.219Z,6.93
2023-04-23T13:17:21.462Z,7.93
2023-04-23T13:19:49.105Z,6.85
2023-04-23T13:22:17.288Z,7.10
2023-04-23T13:24:45.707Z,5.40
2023-04-23T13:27:13.636Z,7.03
2023-04-23T13:29:42.047Z,6.60
2023-04-23T13:32:10.923Z,5.93
2023-04-23T13:34:39.006Z,4.72
2023-04-23T13:37:09.346Z,8.05
2023-04-23T13:39:39.943Z,8.93
2023-04-23T13:42:10.194Z,6.80
2023-04-23T13:44:38.551Z,8.02
2023-04-23T13:47:07.663Z,5.10
2023-04-23T13:49:36.073Z,5.20
2023-04-23T13:52:07.319Z,10.63
2023-04-23T13:54:36.006Z,5.28
2023-04-23T13:57:03.737Z,3.78
2023-04-23T13:59:31.421Z,4.32
2023-04-23T14:01:59.911Z,5.18
2023-04-23T14:04:27.927Z,5.35
2023-04-23T14:06:55.693Z,7.82
2023-04-23T14:09:23.529Z,13.68
2023-04-23T14:11:51.629Z,5.45
2023-04-23T14:14:21.441Z,9.82
2023-04-23T14:16:49.879Z,8.55
2023-04-23T14:19:18.447Z,6.80
2023-04-23T14:21:46.747Z,5.05
2023-04-23T14:24:26.942Z,7.75
2023-04-23T14:26:54.469Z,5.28
2023-04-23T14:29:31.551Z,5.50
2023-04-23T14:31:59.061Z,6.75
2023-04-23T14:34:27.520Z,5.20
2023-04-23T14:36:55.084Z,5.18
2023-04-23T14:39:26.893Z,4.57
2023-04-23T14:41:54.473Z,6.00
2023-04-23T14:44:26.696Z,4.78
2023-04-23T14:46:54.625Z,3.33
2023-04-23T14:49:22.702Z,8.82
2023-04-23T14:51:51.079Z,3.75
2023-04-23T14:54:19.048Z,4.75
2023-04-23T14:56:47.351Z,3.65
2023-04-23T14:59:15.160Z,4.57
2023-04-23T15:01:43.521Z,3.97
2023-04-23T15:04:12.005Z,5.15
2023-04-23T15:06:40.790Z,3.67
2023-04-23T15:09:09.197Z,3.67
2023-04-23T15:11:37.993Z,3.67
2023-04-23T15:14:11.370Z,3.38
2023-04-23T15:19:12.840Z,2.83
2023-04-23T15:21:42.903Z,4.63
2023-04-23T15:24:11.116Z,7.18
2023-04-23T15:26:38.796Z,4.00
2023-04-23T15:29:09.147Z,4.20
2023-04-23T15:31:38.339Z,4.22
2023-04-23T15:34:09.639Z,7.65
2023-04-23T15:36:38.083Z,3.72
2023-04-23T15:39:07.383Z,4.88
2023-04-23T15:41:39.432Z,3.00
2023-04-23T15:44:13.373Z,4.82
2023-04-23T15:46:41.126Z,4.70
2023-04-23T15:49:08.886Z,6.07
2023-04-23T15:51:36.689Z,3.45
2023-04-23T15:54:08.117Z,4.88
2023-04-23T15:56:37.506Z,4.28
2023-04-23T15:59:04.791Z,4.28
2023-04-23T16:01:32.822Z,3.58
2023-04-23T16:04:10.362Z,3.30
2023-04-23T16:06:39.269Z,5.07
2023-04-23T16:09:09.352Z,3.75
2023-04-23T16:11:37.215Z,4.18
2023-04-23T16:14:05.606Z,3.58
2023-04-23T16:16:33.341Z,4.80
2023-04-23T16:19:02.636Z,4.40
2023-04-23T16:21:31.340Z,5.32
2023-04-23T16:23:58.906Z,3.83
2023-04-23T16:26:26.428Z,4.85
2023-04-23T16:29:05.504Z,6.15
2023-04-23T16:31:39.801Z,4.07
2023-04-23T16:34:07.529Z,4.68
2023-04-23T16:36:35.297Z,3.75
2023-04-23T16:39:10.467Z,6.82
2023-04-23T16:41:37.973Z,8.45
2023-04-23T16:44:05.870Z,8.13
2023-04-23T16:46:33.635Z,10.55
2023-04-23T16:49:01.292Z,6.05
2023-04-23T16:51:29.682Z,7.85
2023-04-23T16:53:58.099Z,5.57
2023-04-23T16:56:24.790Z,6.00
2023-04-23T16:58:52.052Z,5.72
2023-04-23T17:01:19.744Z,5.60
2023-04-23T17:03:48.003Z,6.00
2023-04-23T17:06:27.731Z,6.50
2023-04-23T17:08:55.912Z,6.70
2023-04-23T17:11:24.731Z,6.07
2023-04-23T17:13:57.716Z,9.48
2023-04-23T17:16:27.913Z,12.05
2023-04-23T17:18:55.852Z,9.63
2023-04-23T17:21:23.804Z,9.27
2023-04-23T17:23:50.541Z,10.37
2023-04-23T17:26:18.565Z,12.77
2023-04-23T17:28:47.118Z,10.07
2023-04-23T17:31:15.634Z,8.83
2023-04-23T17:33:49.662Z,9.60
2023-04-23T17:36:17.699Z,9.23
2023-04-23T17:38:45.939Z,10.50
2023-04-23T17:41:13.925Z,9.53
2023-04-23T17:43:41.944Z,10.17
2023-04-23T17:46:09.617Z,11.07
2023-04-23T17:48:37.193Z,9.50
2023-04-23T17:51:05.220Z,11.07
2023-04-23T17:53:33.283Z,11.77
2023-04-23T17:56:03.053Z,9.03
2023-04-23T17:58:30.888Z,10.37
2023-04-23T18:00:59.165Z,11.20
2023-04-23T18:03:27.903Z,9.33
2023-04-23T18:05:55.423Z,11.27
2023-04-23T18:08:23.375Z,10.97
2023-04-23T18:10:51.452Z,11.37
2023-04-23T18:13:19.166Z,11.43
2023-04-23T18:15:49.955Z,11.30
2023-04-23T18:18:18.939Z,12.53
2023-04-23T18:20:47.638Z,11.80
2023-04-23T18:23:15.592Z,11.83
2023-04-23T18:25:44.082Z,10.20
2023-04-23T18:28:12.061Z,9.97
2023-04-23T18:30:39.404Z,11.70
2023-04-23T18:33:25.456Z,11.60
2023-04-23T18:35:54.091Z,10.93
2023-04-23T18:38:41.710Z,11.30
2023-04-23T18:41:09.333Z,9.27
2023-04-23T18:43:37.108Z,15.07
2023-04-23T18:46:04.255Z,11.53
2023-04-23T18:48:34.218Z,10.20
2023-04-23T18:51:15.821Z,10.03
2023-04-23T18:53:43.607Z,8.93
2023-04-23T18:56:11.103Z,10.23
2023-04-23T18:58:39.019Z,10.63
2023-04-23T19:01:06.716Z,9.07
2023-04-23T19:03:34.362Z,11.33
2023-04-23T19:06:07.357Z,7.90
2023-04-23T19:08:36.433Z,8.87
2023-04-23T19:11:04.197Z,11.63
2023-04-23T19:13:38.141Z,10.87
2023-04-23T19:16:06.038Z,10.93
2023-04-23T19:18:34.789Z,7.60
2023-04-23T19:21:02.423Z,8.67
2023-04-23T19:23:30.088Z,9.77
2023-04-23T19:25:58.206Z,9.37
2023-04-23T19:28:26.085Z,10.60
2023-04-23T19:30:55.859Z,11.17
2023-04-23T19:33:35.924Z,10.33
2023-04-23T19:36:03.608Z,9.13
2023-04-23T19:38:41.379Z,10.63
2023-04-23T19:41:09.003Z,10.57
2023-04-23T19:43:36.542Z,10.63
2023-04-23T19:46:04.680Z,9.60
2023-04-23T19:48:44.471Z,10.57
2023-04-23T19:51:11.163Z,10.10
2023-04-23T19:53:38.882Z,9.50
2023-04-23T19:56:09.123Z,10.57
2023-04-23T19:58:36.912Z,9.57
2023-04-23T20:01:04.578Z,11.43
2023-04-23T20:03:34.693Z,10.57
2023-04-23T20:06:02.383Z,11.00
2023-04-23T20:08:41.452Z,9.27
2023-04-23T20:11:11.863Z,9.63
2023-04-23T20:13:39.564Z,10.43
2023-04-23T20:16:08.372Z,9.67
2023-04-23T20:18:38.814Z,10.47
2023-04-23T20:21:06.435Z,13.60
2023-04-23T20:23:34.373Z,9.50
2023-04-23T20:26:01.559Z,11.03
2023-04-23T20:28:29.209Z,9.03
2023-04-23T20:30:56.846Z,8.90
2023-04-23T20:33:24.549Z,10.83
2023-04-23T20:35:51.892Z,9.73
2023-04-23T20:38:39.308Z,8.43
2023-04-23T20:41:10.104Z,11.20
2023-04-23T20:43:42.645Z,9.77
2023-04-23T20:46:10.398Z,10.10
2023-04-23T20:48:39.379Z,10.93
2023-04-23T20:51:08.622Z,11.83
2023-04-23T20:53:40.173Z,10.33
2023-04-23T20:56:07.928Z,10.07
2023-04-23T20:58:36.426Z,10.70
2023-04-23T21:01:04.943Z,11.17
2023-04-23T21:03:33.155Z,11.60
2023-04-23T21:06:00.903Z,9.50
2023-04-23T21:08:28.969Z,11.20
2023-04-23T21:10:56.058Z,8.93
2023-04-23T21:13:23.249Z,9.93
2023-04-23T21:15:50.903Z,11.13
2023-04-23T21:18:19.313Z,10.77
2023-04-23T21:20:47.245Z,8.63
2023-04-23T21:23:15.446Z,11.93
2023-04-23T21:25:43.194Z,8.30
2023-04-23T21:28:11.025Z,12.00
2023-04-23T21:30:51.018Z,8.93
2023-04-23T21:33:18.921Z,9.17
2023-04-23T21:35:46.272Z,9.60
2023-04-23T21:38:14.657Z,10.10
2023-04-23T21:40:41.820Z,9.90
2023-04-23T21:43:09.409Z,10.03
2023-04-23T21:45:37.220Z,11.17
2023-04-23T21:48:04.274Z,10.87
2023-04-23T21:50:32.426Z,10.50
2023-04-23T21:53:00.625Z,14.97
2023-04-23T21:55:27.985Z,13.33
2023-04-23T21:58:03.285Z,12.50
2023-04-23T22:00:42.623Z,13.87
2023-04-23T22:03:11.388Z,12.23
2023-04-23T22:05:38.975Z,22.03
2023-04-23T22:08:09.672Z,13.03
2023-04-23T22:10:42.909Z,13.53
2023-04-23T22:13:11.216Z,12.17
2023-04-23T22:15:38.476Z,13.07
2023-04-23T22:18:06.663Z,13.77
2023-04-23T22:20:34.159Z,14.67
2023-04-23T22:23:02.163Z,12.27
2023-04-23T22:25:29.632Z,13.10
2023-04-23T22:27:57.656Z,14.43
2023-04-23T22:30:26.212Z,13.90
2023-04-23T22:32:54.266Z,12.63
2023-04-23T22:35:22.661Z,14.87
2023-04-23T22:37:50.336Z,15.63
2023-04-23T22:40:17.561Z,13.00
2023-04-23T22:42:45.925Z,11.53
2023-04-23T22:45:13.446Z,12.70
2023-04-23T22:47:41.936Z,10.43
2023-04-23T22:50:12.256Z,10.47
2023-04-23T22:52:39.956Z,11.10
2023-04-23T22:55:09.998Z,10.23
2023-04-23T22:57:40.392Z,8.30
2023-04-23T23:00:13.855Z,14.47
2023-04-23T23:02:41.687Z,9.27
2023-04-23T23:05:09.780Z,7.77
2023-04-23T23:07:37.247Z,9.60
2023-04-23T23:10:08.603Z,8.67
2023-04-23T23:12:39.504Z,8.87
2023-04-23T23:15:09.089Z,9.17
2023-04-23T23:17:37.132Z,7.67
2023-04-23T23:20:09.998Z,12.87
2023-04-23T23:22:38.569Z,9.93
2023-04-23T23:25:07.615Z,9.50
2023-04-23T23:27:35.727Z,8.97
2023-04-23T23:30:06.055Z,9.20
2023-04-23T23:32:33.846Z,9.67
2023-04-23T23:35:01.962Z,9.43
2023-04-23T23:37:30.398Z,12.27
2023-04-23T23:39:58.272Z,11.30
2023-04-23T23:42:25.958Z,9.97
2023-04-23T23:44:53.914Z,8.93
2023-04-23T23:47:21.582Z,12.73
2023-04-23T23:49:52.443Z,10.33
2023-04-23T23:52:20.167Z,10.43
2023-04-23T23:54:48.087Z,10.57
2023-04-23T23:57:15.955Z,11.07
2023-04-23T23:59:44.528Z,11.00
